sensor_id;sensor_type;location;lat;lon;timestamp;temperature;humidity
48043;DHT22;33988;47.992;8.820;2023-12-07T00:01:16;9.60;56.20
48043;DHT22;33988;47.992;8.820;2023-12-07T00:03:43;9.60;56.20
48043;DHT22;33988;47.992;8.820;2023-12-07T00:06:10;9.60;56.10
48043;DHT22;33988;47.992;8.820;2023-12-07T00:08:37;9.60;56.10
48043;DHT22;33988;47.992;8.820;2023-12-07T00:11:04;9.60;56.10
48043;DHT22;33988;47.992;8.820;2023-12-07T00:13:32;9.60;56.10
48043;DHT22;33988;47.992;8.820;2023-12-07T00:15:59;9.60;56.10
48043;DHT22;33988;47.992;8.820;2023-12-07T00:18:26;9.60;56.10
48043;DHT22;33988;47.992;8.820;2023-12-07T00:20:53;9.60;56.10
48043;DHT22;33988;47.992;8.820;2023-12-07T00:23:23;9.60;56.10
48043;DHT22;33988;47.992;8.820;2023-12-07T00:25:52;9.60;56.10
48043;DHT22;33988;47.992;8.820;2023-12-07T00:28:22;9.60;56.10
48043;DHT22;33988;47.992;8.820;2023-12-07T00:30:49;9.60;56.00
48043;DHT22;33988;47.992;8.820;2023-12-07T00:33:18;9.60;56.00
48043;DHT22;33988;47.992;8.820;2023-12-07T00:35:48;9.60;56.00
48043;DHT22;33988;47.992;8.820;2023-12-07T00:38:15;9.60;56.00
48043;DHT22;33988;47.992;8.820;2023-12-07T00:40:42;9.60;56.00
48043;DHT22;33988;47.992;8.820;2023-12-07T00:43:10;9.60;56.00
48043;DHT22;33988;47.992;8.820;2023-12-07T00:45:43;9.70;56.00
48043;DHT22;33988;47.992;8.820;2023-12-07T00:48:10;9.60;56.00
48043;DHT22;33988;47.992;8.820;2023-12-07T00:50:37;9.60;56.00
48043;DHT22;33988;47.992;8.820;2023-12-07T00:53:07;9.60;56.00
48043;DHT22;33988;47.992;8.820;2023-12-07T00:55:35;9.60;56.00
48043;DHT22;33988;47.992;8.820;2023-12-07T00:58:04;9.60;56.00
48043;DHT22;33988;47.992;8.820;2023-12-07T01:00:31;9.60;56.00
48043;DHT22;33988;47.992;8.820;2023-12-07T01:02:58;9.60;56.00
48043;DHT22;33988;47.992;8.820;2023-12-07T01:05:28;9.60;56.00
48043;DHT22;33988;47.992;8.820;2023-12-07T01:07:55;9.60;55.90
48043;DHT22;33988;47.992;8.820;2023-12-07T01:10:22;9.60;56.00
48043;DHT22;33988;47.992;8.820;2023-12-07T01:12:52;9.60;55.90
48043;DHT22;33988;47.992;8.820;2023-12-07T01:15:21;9.60;55.90
48043;DHT22;33988;47.992;8.820;2023-12-07T01:17:52;9.60;55.90
48043;DHT22;33988;47.992;8.820;2023-12-07T01:20:22;9.60;55.90
48043;DHT22;33988;47.992;8.820;2023-12-07T01:22:52;9.60;55.90
48043;DHT22;33988;47.992;8.820;2023-12-07T01:25:19;9.60;55.90
48043;DHT22;33988;47.992;8.820;2023-12-07T01:27:51;9.60;55.90
48043;DHT22;33988;47.992;8.820;2023-12-07T01:30:18;9.60;55.90
48043;DHT22;33988;47.992;8.820;2023-12-07T01:32:48;9.60;55.90
48043;DHT22;33988;47.992;8.820;2023-12-07T01:35:15;9.60;55.90
48043;DHT22;33988;47.992;8.820;2023-12-07T01:37:42;9.60;55.90
48043;DHT22;33988;47.992;8.820;2023-12-07T01:40:11;9.60;55.90
48043;DHT22;33988;47.992;8.820;2023-12-07T01:42:39;9.60;55.80
48043;DHT22;33988;47.992;8.820;2023-12-07T01:45:06;9.60;55.80
48043;DHT22;33988;47.992;8.820;2023-12-07T01:47:36;9.60;55.80
48043;DHT22;33988;47.992;8.820;2023-12-07T01:50:04;9.60;55.80
48043;DHT22;33988;47.992;8.820;2023-12-07T01:52:32;9.50;55.70
48043;DHT22;33988;47.992;8.820;2023-12-07T01:55:02;9.50;55.70
48043;DHT22;33988;47.992;8.820;2023-12-07T01:57:32;9.50;55.70
48043;DHT22;33988;47.992;8.820;2023-12-07T01:59:59;9.50;55.70
48043;DHT22;33988;47.992;8.820;2023-12-07T02:02:33;9.50;55.70
48043;DHT22;33988;47.992;8.820;2023-12-07T02:05:02;9.50;55.70
48043;DHT22;33988;47.992;8.820;2023-12-07T02:07:34;9.50;55.70
48043;DHT22;33988;47.992;8.820;2023-12-07T02:10:01;9.50;55.70
48043;DHT22;33988;47.992;8.820;2023-12-07T02:12:31;9.50;55.60
48043;DHT22;33988;47.992;8.820;2023-12-07T02:15:03;9.40;55.60
48043;DHT22;33988;47.992;8.820;2023-12-07T02:20:35;9.40;55.60
48043;DHT22;33988;47.992;8.820;2023-12-07T02:23:08;9.40;55.60
48043;DHT22;33988;47.992;8.820;2023-12-07T02:25:45;9.40;55.70
48043;DHT22;33988;47.992;8.820;2023-12-07T02:28:19;9.30;55.60
48043;DHT22;33988;47.992;8.820;2023-12-07T02:30:46;9.30;55.70
48043;DHT22;33988;47.992;8.820;2023-12-07T02:33:16;9.30;55.70
48043;DHT22;33988;47.992;8.820;2023-12-07T02:35:45;9.30;55.80
48043;DHT22;33988;47.992;8.820;2023-12-07T02:38:12;9.30;55.80
48043;DHT22;33988;47.992;8.820;2023-12-07T02:40:42;9.30;55.80
48043;DHT22;33988;47.992;8.820;2023-12-07T02:43:11;9.30;55.90
48043;DHT22;33988;47.992;8.820;2023-12-07T02:45:38;9.10;55.90
48043;DHT22;33988;47.992;8.820;2023-12-07T02:48:05;9.30;55.90
48043;DHT22;33988;47.992;8.820;2023-12-07T02:50:33;9.30;55.90
48043;DHT22;33988;47.992;8.820;2023-12-07T02:53:00;9.30;55.80
48043;DHT22;33988;47.992;8.820;2023-12-07T02:55:27;9.30;55.80
48043;DHT22;33988;47.992;8.820;2023-12-07T02:57:54;9.30;55.80
48043;DHT22;33988;47.992;8.820;2023-12-07T03:00:21;9.30;55.80
48043;DHT22;33988;47.992;8.820;2023-12-07T03:02:48;9.30;55.80
48043;DHT22;33988;47.992;8.820;2023-12-07T03:05:17;9.30;55.80
48043;DHT22;33988;47.992;8.820;2023-12-07T03:07:46;9.30;55.80
48043;DHT22;33988;47.992;8.820;2023-12-07T03:10:13;9.30;55.80
48043;DHT22;33988;47.992;8.820;2023-12-07T03:12:40;9.30;55.90
48043;DHT22;33988;47.992;8.820;2023-12-07T03:15:09;9.30;55.80
48043;DHT22;33988;47.992;8.820;2023-12-07T03:17:37;9.30;55.80
48043;DHT22;33988;47.992;8.820;2023-12-07T03:20:04;9.30;55.80
48043;DHT22;33988;47.992;8.820;2023-12-07T03:22:34;9.30;55.80
48043;DHT22;33988;47.992;8.820;2023-12-07T03:25:01;9.30;55.80
48043;DHT22;33988;47.992;8.820;2023-12-07T03:27:30;9.30;55.80
48043;DHT22;33988;47.992;8.820;2023-12-07T03:29:57;9.30;55.80
48043;DHT22;33988;47.992;8.820;2023-12-07T03:32:24;9.30;55.80
48043;DHT22;33988;47.992;8.820;2023-12-07T03:34:54;9.30;55.80
48043;DHT22;33988;47.992;8.820;2023-12-07T03:37:23;9.30;55.80
48043;DHT22;33988;47.992;8.820;2023-12-07T03:39:53;9.30;55.70
48043;DHT22;33988;47.992;8.820;2023-12-07T03:42:20;9.30;55.70
48043;DHT22;33988;47.992;8.820;2023-12-07T03:45:09;9.20;55.70
48043;DHT22;33988;47.992;8.820;2023-12-07T03:47:39;9.30;55.70
48043;DHT22;33988;47.992;8.820;2023-12-07T03:50:07;9.30;55.70
48043;DHT22;33988;47.992;8.820;2023-12-07T03:52:37;9.20;55.60
48043;DHT22;33988;47.992;8.820;2023-12-07T03:55:04;9.20;55.60
48043;DHT22;33988;47.992;8.820;2023-12-07T03:57:32;9.20;55.70
48043;DHT22;33988;47.992;8.820;2023-12-07T03:59:59;9.20;55.70
48043;DHT22;33988;47.992;8.820;2023-12-07T04:02:32;9.20;55.70
48043;DHT22;33988;47.992;8.820;2023-12-07T04:05:01;9.20;55.70
48043;DHT22;33988;47.992;8.820;2023-12-07T04:07:29;9.10;55.60
48043;DHT22;33988;47.992;8.820;2023-12-07T04:09:58;9.10;55.70
48043;DHT22;33988;47.992;8.820;2023-12-07T04:12:25;9.10;55.70
48043;DHT22;33988;47.992;8.820;2023-12-07T04:14:54;9.10;55.70
48043;DHT22;33988;47.992;8.820;2023-12-07T04:17:21;9.10;55.70
48043;DHT22;33988;47.992;8.820;2023-12-07T04:19:50;9.20;55.80
48043;DHT22;33988;47.992;8.820;2023-12-07T04:22:17;9.10;55.70
48043;DHT22;33988;47.992;8.820;2023-12-07T04:24:44;9.10;55.70
48043;DHT22;33988;47.992;8.820;2023-12-07T04:27:13;9.10;55.70
48043;DHT22;33988;47.992;8.820;2023-12-07T04:29:41;9.10;55.70
48043;DHT22;33988;47.992;8.820;2023-12-07T04:32:10;9.10;55.70
48043;DHT22;33988;47.992;8.820;2023-12-07T04:34:39;9.10;55.60
48043;DHT22;33988;47.992;8.820;2023-12-07T04:37:08;9.10;55.60
48043;DHT22;33988;47.992;8.820;2023-12-07T04:39:36;9.10;55.70
48043;DHT22;33988;47.992;8.820;2023-12-07T04:42:03;9.10;55.70
48043;DHT22;33988;47.992;8.820;2023-12-07T04:44:30;9.10;55.70
48043;DHT22;33988;47.992;8.820;2023-12-07T04:46:57;9.10;55.70
48043;DHT22;33988;47.992;8.820;2023-12-07T04:49:27;9.10;55.70
48043;DHT22;33988;47.992;8.820;2023-12-07T04:51:56;9.00;55.70
48043;DHT22;33988;47.992;8.820;2023-12-07T04:54:23;8.90;55.80
48043;DHT22;33988;47.992;8.820;2023-12-07T04:56:50;9.00;55.70
48043;DHT22;33988;47.992;8.820;2023-12-07T04:59:17;9.00;55.70
48043;DHT22;33988;47.992;8.820;2023-12-07T05:01:44;9.00;55.70
48043;DHT22;33988;47.992;8.820;2023-12-07T05:04:12;9.00;55.80
48043;DHT22;33988;47.992;8.820;2023-12-07T05:06:39;9.00;55.80
48043;DHT22;33988;47.992;8.820;2023-12-07T05:09:05;8.90;55.80
48043;DHT22;33988;47.992;8.820;2023-12-07T05:11:36;8.90;55.70
48043;DHT22;33988;47.992;8.820;2023-12-07T05:14:04;8.90;55.70
48043;DHT22;33988;47.992;8.820;2023-12-07T05:16:34;8.90;55.70
48043;DHT22;33988;47.992;8.820;2023-12-07T05:19:01;8.90;55.70
48043;DHT22;33988;47.992;8.820;2023-12-07T05:21:31;8.90;55.70
48043;DHT22;33988;47.992;8.820;2023-12-07T05:24:01;8.90;55.70
48043;DHT22;33988;47.992;8.820;2023-12-07T05:26:28;8.90;55.70
48043;DHT22;33988;47.992;8.820;2023-12-07T05:28:56;8.90;55.70
48043;DHT22;33988;47.992;8.820;2023-12-07T05:31:23;8.90;55.70
48043;DHT22;33988;47.992;8.820;2023-12-07T05:33:52;8.80;55.60
48043;DHT22;33988;47.992;8.820;2023-12-07T05:36:19;8.80;55.60
48043;DHT22;33988;47.992;8.820;2023-12-07T05:38:47;8.80;55.60
48043;DHT22;33988;47.992;8.820;2023-12-07T05:41:16;8.80;55.60
48043;DHT22;33988;47.992;8.820;2023-12-07T05:43:46;8.70;55.60
48043;DHT22;33988;47.992;8.820;2023-12-07T05:46:13;8.70;55.60
48043;DHT22;33988;47.992;8.820;2023-12-07T05:48:40;8.70;55.60
48043;DHT22;33988;47.992;8.820;2023-12-07T05:51:13;8.70;55.60
48043;DHT22;33988;47.992;8.820;2023-12-07T05:53:41;8.70;55.60
48043;DHT22;33988;47.992;8.820;2023-12-07T05:56:08;8.70;55.60
48043;DHT22;33988;47.992;8.820;2023-12-07T05:58:36;8.70;55.70
48043;DHT22;33988;47.992;8.820;2023-12-07T06:01:03;8.70;55.60
48043;DHT22;33988;47.992;8.820;2023-12-07T06:03:37;8.70;55.60
48043;DHT22;33988;47.992;8.820;2023-12-07T06:06:04;8.60;55.50
48043;DHT22;33988;47.992;8.820;2023-12-07T06:08:33;8.60;55.40
48043;DHT22;33988;47.992;8.820;2023-12-07T06:11:03;8.60;55.30
48043;DHT22;33988;47.992;8.820;2023-12-07T06:13:30;8.60;55.30
48043;DHT22;33988;47.992;8.820;2023-12-07T06:15:57;8.50;55.30
48043;DHT22;33988;47.992;8.820;2023-12-07T06:18:30;8.50;55.40
48043;DHT22;33988;47.992;8.820;2023-12-07T06:20:57;8.50;55.40
48043;DHT22;33988;47.992;8.820;2023-12-07T06:23:24;8.50;55.40
48043;DHT22;33988;47.992;8.820;2023-12-07T06:25:53;8.40;55.30
48043;DHT22;33988;47.992;8.820;2023-12-07T06:28:20;8.40;55.30
48043;DHT22;33988;47.992;8.820;2023-12-07T06:30:49;8.40;55.40
48043;DHT22;33988;47.992;8.820;2023-12-07T06:33:16;8.40;55.40
48043;DHT22;33988;47.992;8.820;2023-12-07T06:35:45;8.40;55.40
48043;DHT22;33988;47.992;8.820;2023-12-07T06:38:15;8.40;55.40
48043;DHT22;33988;47.992;8.820;2023-12-07T06:40:48;8.30;55.40
48043;DHT22;33988;47.992;8.820;2023-12-07T06:43:15;8.30;55.40
48043;DHT22;33988;47.992;8.820;2023-12-07T06:45:46;8.30;56.00
48043;DHT22;33988;47.992;8.820;2023-12-07T06:48:13;8.40;55.40
48043;DHT22;33988;47.992;8.820;2023-12-07T06:50:40;8.10;55.40
48043;DHT22;33988;47.992;8.820;2023-12-07T06:53:08;8.30;55.40
48043;DHT22;33988;47.992;8.820;2023-12-07T06:55:35;8.30;55.30
48043;DHT22;33988;47.992;8.820;2023-12-07T06:58:07;8.30;55.40
48043;DHT22;33988;47.992;8.820;2023-12-07T07:00:36;8.20;55.30
48043;DHT22;33988;47.992;8.820;2023-12-07T07:03:04;8.20;55.30
48043;DHT22;33988;47.992;8.820;2023-12-07T07:05:31;8.20;55.30
48043;DHT22;33988;47.992;8.820;2023-12-07T07:07:58;8.20;55.30
48043;DHT22;33988;47.992;8.820;2023-12-07T07:10:27;8.20;55.30
48043;DHT22;33988;47.992;8.820;2023-12-07T07:12:58;8.20;55.30
48043;DHT22;33988;47.992;8.820;2023-12-07T07:15:29;8.20;55.30
48043;DHT22;33988;47.992;8.820;2023-12-07T07:17:56;8.20;55.30
48043;DHT22;33988;47.992;8.820;2023-12-07T07:20:24;8.20;55.30
48043;DHT22;33988;47.992;8.820;2023-12-07T07:22:51;8.20;55.30
48043;DHT22;33988;47.992;8.820;2023-12-07T07:25:18;8.10;55.20
48043;DHT22;33988;47.992;8.820;2023-12-07T07:27:48;8.20;55.30
48043;DHT22;33988;47.992;8.820;2023-12-07T07:30:18;8.10;55.20
48043;DHT22;33988;47.992;8.820;2023-12-07T07:32:45;8.20;55.20
48043;DHT22;33988;47.992;8.820;2023-12-07T07:35:12;8.10;55.20
48043;DHT22;33988;47.992;8.820;2023-12-07T07:37:40;8.10;55.20
48043;DHT22;33988;47.992;8.820;2023-12-07T07:40:09;8.10;55.20
48043;DHT22;33988;47.992;8.820;2023-12-07T07:42:38;8.10;55.20
48043;DHT22;33988;47.992;8.820;2023-12-07T07:45:08;8.10;55.20
48043;DHT22;33988;47.992;8.820;2023-12-07T07:47:36;8.10;55.20
48043;DHT22;33988;47.992;8.820;2023-12-07T07:50:04;8.10;55.20
48043;DHT22;33988;47.992;8.820;2023-12-07T07:52:33;8.10;55.20
48043;DHT22;33988;47.992;8.820;2023-12-07T07:55:04;8.10;55.20
48043;DHT22;33988;47.992;8.820;2023-12-07T07:57:31;8.00;55.10
48043;DHT22;33988;47.992;8.820;2023-12-07T08:00:00;8.00;55.20
48043;DHT22;33988;47.992;8.820;2023-12-07T08:02:35;8.00;55.20
48043;DHT22;33988;47.992;8.820;2023-12-07T08:05:04;8.00;55.10
48043;DHT22;33988;47.992;8.820;2023-12-07T08:07:34;8.00;55.10
48043;DHT22;33988;47.992;8.820;2023-12-07T08:10:03;8.00;55.10
48043;DHT22;33988;47.992;8.820;2023-12-07T08:12:31;7.90;55.10
48043;DHT22;33988;47.992;8.820;2023-12-07T08:14:58;7.90;55.20
48043;DHT22;33988;47.992;8.820;2023-12-07T08:17:25;7.90;55.20
48043;DHT22;33988;47.992;8.820;2023-12-07T08:19:53;7.90;55.20
48043;DHT22;33988;47.992;8.820;2023-12-07T08:22:20;7.90;55.20
48043;DHT22;33988;47.992;8.820;2023-12-07T08:24:47;7.90;55.20
48043;DHT22;33988;47.992;8.820;2023-12-07T08:27:30;7.90;55.20
48043;DHT22;33988;47.992;8.820;2023-12-07T08:29:57;7.90;55.20
48043;DHT22;33988;47.992;8.820;2023-12-07T08:32:24;7.90;55.20
48043;DHT22;33988;47.992;8.820;2023-12-07T08:34:52;7.90;55.20
48043;DHT22;33988;47.992;8.820;2023-12-07T08:37:20;7.90;55.20
48043;DHT22;33988;47.992;8.820;2023-12-07T08:39:49;8.00;55.20
48043;DHT22;33988;47.992;8.820;2023-12-07T08:42:16;8.00;55.20
48043;DHT22;33988;47.992;8.820;2023-12-07T08:44:46;8.00;55.10
48043;DHT22;33988;47.992;8.820;2023-12-07T08:47:13;8.00;55.00
48043;DHT22;33988;47.992;8.820;2023-12-07T08:49:40;7.90;55.00
48043;DHT22;33988;47.992;8.820;2023-12-07T08:52:07;7.90;55.00
48043;DHT22;33988;47.992;8.820;2023-12-07T08:54:56;7.90;55.00
48043;DHT22;33988;47.992;8.820;2023-12-07T08:57:26;7.80;55.10
48043;DHT22;33988;47.992;8.820;2023-12-07T08:59:53;7.80;55.10
48043;DHT22;33988;47.992;8.820;2023-12-07T09:02:21;7.80;55.00
48043;DHT22;33988;47.992;8.820;2023-12-07T09:05:07;7.80;55.00
48043;DHT22;33988;47.992;8.820;2023-12-07T09:07:35;7.80;55.00
48043;DHT22;33988;47.992;8.820;2023-12-07T09:10:03;7.80;55.10
48043;DHT22;33988;47.992;8.820;2023-12-07T09:12:32;7.80;55.10
48043;DHT22;33988;47.992;8.820;2023-12-07T09:15:05;7.80;55.10
48043;DHT22;33988;47.992;8.820;2023-12-07T09:17:44;7.80;55.20
48043;DHT22;33988;47.992;8.820;2023-12-07T09:20:11;7.80;55.20
48043;DHT22;33988;47.992;8.820;2023-12-07T09:22:45;7.90;55.30
48043;DHT22;33988;47.992;8.820;2023-12-07T09:25:15;7.90;55.30
48043;DHT22;33988;47.992;8.820;2023-12-07T09:27:45;7.90;55.30
48043;DHT22;33988;47.992;8.820;2023-12-07T09:30:13;7.90;55.20
48043;DHT22;33988;47.992;8.820;2023-12-07T09:32:43;7.90;55.20
48043;DHT22;33988;47.992;8.820;2023-12-07T09:35:12;7.90;55.20
48043;DHT22;33988;47.992;8.820;2023-12-07T09:37:48;8.00;55.20
48043;DHT22;33988;47.992;8.820;2023-12-07T09:40:19;8.00;55.20
48043;DHT22;33988;47.992;8.820;2023-12-07T09:42:49;8.00;55.20
48043;DHT22;33988;47.992;8.820;2023-12-07T09:45:18;8.00;55.30
48043;DHT22;33988;47.992;8.820;2023-12-07T09:47:52;8.00;55.30
48043;DHT22;33988;47.992;8.820;2023-12-07T09:50:21;8.10;55.30
48043;DHT22;33988;47.992;8.820;2023-12-07T09:52:56;8.10;55.30
48043;DHT22;33988;47.992;8.820;2023-12-07T09:55:34;8.10;55.30
48043;DHT22;33988;47.992;8.820;2023-12-07T09:58:06;8.10;55.30
48043;DHT22;33988;47.992;8.820;2023-12-07T10:00:39;8.10;55.40
48043;DHT22;33988;47.992;8.820;2023-12-07T10:03:20;8.10;55.40
48043;DHT22;33988;47.992;8.820;2023-12-07T10:05:57;8.20;55.50
48043;DHT22;33988;47.992;8.820;2023-12-07T10:08:31;8.20;55.60
48043;DHT22;33988;47.992;8.820;2023-12-07T10:13:35;8.20;55.50
48043;DHT22;33988;47.992;8.820;2023-12-07T10:16:18;8.20;55.50
48043;DHT22;33988;47.992;8.820;2023-12-07T10:18:48;8.30;55.50
48043;DHT22;33988;47.992;8.820;2023-12-07T10:21:34;8.30;55.50
48043;DHT22;33988;47.992;8.820;2023-12-07T10:24:01;8.30;55.40
48043;DHT22;33988;47.992;8.820;2023-12-07T10:26:30;8.30;55.50
48043;DHT22;33988;47.992;8.820;2023-12-07T10:29:06;8.30;56.00
48043;DHT22;33988;47.992;8.820;2023-12-07T10:32:02;8.40;55.40
48043;DHT22;33988;47.992;8.820;2023-12-07T10:34:32;8.30;55.30
48043;DHT22;33988;47.992;8.820;2023-12-07T10:37:02;8.40;55.40
48043;DHT22;33988;47.992;8.820;2023-12-07T10:39:33;8.40;55.40
48043;DHT22;33988;47.992;8.820;2023-12-07T10:42:02;8.40;55.40
48043;DHT22;33988;47.992;8.820;2023-12-07T10:44:36;8.40;55.40
48043;DHT22;33988;47.992;8.820;2023-12-07T10:47:09;8.40;55.30
48043;DHT22;33988;47.992;8.820;2023-12-07T10:49:40;8.50;55.40
48043;DHT22;33988;47.992;8.820;2023-12-07T10:52:14;8.50;55.30
48043;DHT22;33988;47.992;8.820;2023-12-07T10:55:03;8.50;55.20
48043;DHT22;33988;47.992;8.820;2023-12-07T10:57:34;8.50;55.10
48043;DHT22;33988;47.992;8.820;2023-12-07T11:00:06;8.50;55.10
48043;DHT22;33988;47.992;8.820;2023-12-07T11:02:40;8.50;55.10
48043;DHT22;33988;47.992;8.820;2023-12-07T11:05:08;8.50;55.10
48043;DHT22;33988;47.992;8.820;2023-12-07T11:08:06;8.50;55.10
48043;DHT22;33988;47.992;8.820;2023-12-07T11:10:45;8.50;55.10
48043;DHT22;33988;47.992;8.820;2023-12-07T11:13:28;8.50;55.70
48043;DHT22;33988;47.992;8.820;2023-12-07T11:15:57;8.50;55.10
48043;DHT22;33988;47.992;8.820;2023-12-07T11:18:30;8.50;55.10
48043;DHT22;33988;47.992;8.820;2023-12-07T11:20:58;8.50;55.10
48043;DHT22;33988;47.992;8.820;2023-12-07T11:23:27;8.50;55.10
48043;DHT22;33988;47.992;8.820;2023-12-07T11:25:55;8.50;55.10
48043;DHT22;33988;47.992;8.820;2023-12-07T11:28:38;8.50;55.10
48043;DHT22;33988;47.992;8.820;2023-12-07T11:31:07;8.50;55.10
48043;DHT22;33988;47.992;8.820;2023-12-07T11:33:38;8.50;55.10
48043;DHT22;33988;47.992;8.820;2023-12-07T11:36:07;8.50;55.10
48043;DHT22;33988;47.992;8.820;2023-12-07T11:38:36;8.30;55.00
48043;DHT22;33988;47.992;8.820;2023-12-07T11:41:04;8.50;55.20
48043;DHT22;33988;47.992;8.820;2023-12-07T11:46:11;8.50;55.10
48043;DHT22;33988;47.992;8.820;2023-12-07T11:48:46;8.50;55.10
48043;DHT22;33988;47.992;8.820;2023-12-07T11:51:18;8.60;55.20
48043;DHT22;33988;47.992;8.820;2023-12-07T11:53:45;8.60;55.20
48043;DHT22;33988;47.992;8.820;2023-12-07T11:56:12;8.60;55.20
48043;DHT22;33988;47.992;8.820;2023-12-07T11:58:40;8.70;55.20
48043;DHT22;33988;47.992;8.820;2023-12-07T12:01:10;8.70;55.20
48043;DHT22;33988;47.992;8.820;2023-12-07T12:03:40;8.70;55.20
48043;DHT22;33988;47.992;8.820;2023-12-07T12:06:09;8.80;55.20
48043;DHT22;33988;47.992;8.820;2023-12-07T12:08:40;8.80;55.20
48043;DHT22;33988;47.992;8.820;2023-12-07T12:11:10;8.80;55.10
48043;DHT22;33988;47.992;8.820;2023-12-07T12:13:37;8.90;55.10
48043;DHT22;33988;47.992;8.820;2023-12-07T12:16:09;8.90;55.00
48043;DHT22;33988;47.992;8.820;2023-12-07T12:18:36;8.90;55.00
48043;DHT22;33988;47.992;8.820;2023-12-07T12:21:07;8.90;54.90
48043;DHT22;33988;47.992;8.820;2023-12-07T12:23:35;9.00;54.90
48043;DHT22;33988;47.992;8.820;2023-12-07T12:26:03;9.00;54.90
48043;DHT22;33988;47.992;8.820;2023-12-07T12:28:33;9.00;54.80
48043;DHT22;33988;47.992;8.820;2023-12-07T12:31:02;9.00;54.80
48043;DHT22;33988;47.992;8.820;2023-12-07T12:33:30;9.00;54.80
48043;DHT22;33988;47.992;8.820;2023-12-07T12:36:06;9.10;54.90
48043;DHT22;33988;47.992;8.820;2023-12-07T12:38:34;9.00;54.80
48043;DHT22;33988;47.992;8.820;2023-12-07T12:41:09;9.10;54.90
48043;DHT22;33988;47.992;8.820;2023-12-07T12:43:37;9.20;54.90
48043;DHT22;33988;47.992;8.820;2023-12-07T12:46:04;9.20;54.90
48043;DHT22;33988;47.992;8.820;2023-12-07T12:48:33;9.20;54.90
48043;DHT22;33988;47.992;8.820;2023-12-07T12:51:13;9.20;54.90
48043;DHT22;33988;47.992;8.820;2023-12-07T12:53:45;9.20;54.70
48043;DHT22;33988;47.992;8.820;2023-12-07T12:56:19;9.20;54.80
48043;DHT22;33988;47.992;8.820;2023-12-07T12:58:52;9.30;54.80
48043;DHT22;33988;47.992;8.820;2023-12-07T13:01:28;9.30;54.80
48043;DHT22;33988;47.992;8.820;2023-12-07T13:03:55;9.40;54.70
48043;DHT22;33988;47.992;8.820;2023-12-07T13:06:27;9.40;54.70
48043;DHT22;33988;47.992;8.820;2023-12-07T13:08:54;9.40;54.70
48043;DHT22;33988;47.992;8.820;2023-12-07T13:11:24;9.50;54.70
48043;DHT22;33988;47.992;8.820;2023-12-07T13:13:51;9.40;54.60
48043;DHT22;33988;47.992;8.820;2023-12-07T13:16:21;9.50;54.60
48043;DHT22;33988;47.992;8.820;2023-12-07T13:18:48;9.50;54.60
48043;DHT22;33988;47.992;8.820;2023-12-07T13:21:17;9.50;54.60
48043;DHT22;33988;47.992;8.820;2023-12-07T13:23:46;9.50;54.50
48043;DHT22;33988;47.992;8.820;2023-12-07T13:26:16;9.50;54.50
48043;DHT22;33988;47.992;8.820;2023-12-07T13:28:48;9.60;54.50
48043;DHT22;33988;47.992;8.820;2023-12-07T13:31:15;9.60;54.60
48043;DHT22;33988;47.992;8.820;2023-12-07T13:33:44;9.60;54.60
48043;DHT22;33988;47.992;8.820;2023-12-07T13:36:22;9.60;54.60
48043;DHT22;33988;47.992;8.820;2023-12-07T13:38:52;9.60;54.50
48043;DHT22;33988;47.992;8.820;2023-12-07T13:41:21;9.70;54.60
48043;DHT22;33988;47.992;8.820;2023-12-07T13:43:51;9.70;54.50
48043;DHT22;33988;47.992;8.820;2023-12-07T13:46:20;9.70;54.50
48043;DHT22;33988;47.992;8.820;2023-12-07T13:48:48;9.70;54.40
48043;DHT22;33988;47.992;8.820;2023-12-07T13:51:16;9.70;54.40
48043;DHT22;33988;47.992;8.820;2023-12-07T13:53:43;9.70;54.30
48043;DHT22;33988;47.992;8.820;2023-12-07T13:56:10;9.70;54.20
48043;DHT22;33988;47.992;8.820;2023-12-07T13:58:39;9.70;54.30
48043;DHT22;33988;47.992;8.820;2023-12-07T14:01:06;9.80;54.20
48043;DHT22;33988;47.992;8.820;2023-12-07T14:03:35;9.70;54.10
48043;DHT22;33988;47.992;8.820;2023-12-07T14:06:04;9.80;54.20
48043;DHT22;33988;47.992;8.820;2023-12-07T14:08:46;9.70;54.20
48043;DHT22;33988;47.992;8.820;2023-12-07T14:11:13;9.70;54.20
48043;DHT22;33988;47.992;8.820;2023-12-07T14:13:40;9.70;54.20
48043;DHT22;33988;47.992;8.820;2023-12-07T14:16:08;9.70;54.10
48043;DHT22;33988;47.992;8.820;2023-12-07T14:18:49;9.70;54.00
48043;DHT22;33988;47.992;8.820;2023-12-07T14:21:34;9.70;54.00
48043;DHT22;33988;47.992;8.820;2023-12-07T14:24:10;9.70;54.10
48043;DHT22;33988;47.992;8.820;2023-12-07T14:26:37;9.70;54.00
48043;DHT22;33988;47.992;8.820;2023-12-07T14:29:09;9.70;54.00
48043;DHT22;33988;47.992;8.820;2023-12-07T14:31:48;9.70;54.00
48043;DHT22;33988;47.992;8.820;2023-12-07T14:34:18;9.70;54.10
48043;DHT22;33988;47.992;8.820;2023-12-07T14:36:58;9.70;54.10
48043;DHT22;33988;47.992;8.820;2023-12-07T14:39:26;9.70;54.10
48043;DHT22;33988;47.992;8.820;2023-12-07T14:41:55;9.70;54.10
48043;DHT22;33988;47.992;8.820;2023-12-07T14:44:24;9.70;54.00
48043;DHT22;33988;47.992;8.820;2023-12-07T14:46:58;9.70;54.00
48043;DHT22;33988;47.992;8.820;2023-12-07T14:49:28;9.70;54.00
48043;DHT22;33988;47.992;8.820;2023-12-07T14:51:55;9.70;54.00
48043;DHT22;33988;47.992;8.820;2023-12-07T14:54:27;9.70;54.00
48043;DHT22;33988;47.992;8.820;2023-12-07T14:56:58;9.70;54.00
48043;DHT22;33988;47.992;8.820;2023-12-07T14:59:25;9.50;54.10
48043;DHT22;33988;47.992;8.820;2023-12-07T15:01:55;9.60;54.00
48043;DHT22;33988;47.992;8.820;2023-12-07T15:04:24;9.70;54.00
48043;DHT22;33988;47.992;8.820;2023-12-07T15:07:00;9.60;53.80
48043;DHT22;33988;47.992;8.820;2023-12-07T15:09:27;9.60;53.80
48043;DHT22;33988;47.992;8.820;2023-12-07T15:11:55;9.60;53.80
48043;DHT22;33988;47.992;8.820;2023-12-07T15:14:23;9.60;53.80
48043;DHT22;33988;47.992;8.820;2023-12-07T15:17:06;9.60;53.80
48043;DHT22;33988;47.992;8.820;2023-12-07T15:19:38;9.60;53.80
48043;DHT22;33988;47.992;8.820;2023-12-07T15:22:09;9.50;53.80
48043;DHT22;33988;47.992;8.820;2023-12-07T15:24:37;9.50;53.70
48043;DHT22;33988;47.992;8.820;2023-12-07T15:27:07;9.50;53.80
48043;DHT22;33988;47.992;8.820;2023-12-07T15:29:34;9.50;53.70
48043;DHT22;33988;47.992;8.820;2023-12-07T15:32:05;9.40;53.70
48043;DHT22;33988;47.992;8.820;2023-12-07T15:34:36;9.40;53.70
48043;DHT22;33988;47.992;8.820;2023-12-07T15:37:08;9.40;53.70
48043;DHT22;33988;47.992;8.820;2023-12-07T15:39:41;9.40;53.70
48043;DHT22;33988;47.992;8.820;2023-12-07T15:42:09;9.40;53.70
48043;DHT22;33988;47.992;8.820;2023-12-07T15:44:37;9.40;53.70
48043;DHT22;33988;47.992;8.820;2023-12-07T15:47:04;9.30;53.60
48043;DHT22;33988;47.992;8.820;2023-12-07T15:49:31;9.30;53.70
48043;DHT22;33988;47.992;8.820;2023-12-07T15:51:59;9.30;53.70
48043;DHT22;33988;47.992;8.820;2023-12-07T15:54:27;9.30;53.70
48043;DHT22;33988;47.992;8.820;2023-12-07T15:57:06;9.30;53.60
48043;DHT22;33988;47.992;8.820;2023-12-07T15:59:37;9.30;53.70
48043;DHT22;33988;47.992;8.820;2023-12-07T16:02:05;9.30;53.70
48043;DHT22;33988;47.992;8.820;2023-12-07T16:04:35;9.30;53.70
48043;DHT22;33988;47.992;8.820;2023-12-07T16:07:05;9.30;53.60
48043;DHT22;33988;47.992;8.820;2023-12-07T16:09:39;9.20;53.60